sensor_id;sensor_type;location;lat;lon;timestamp;temperature;humidity
47368;DHT22;34646;47.964;7.982;2022-09-23T00:01:27;18.30;66.90
47368;DHT22;34646;47.964;7.982;2022-09-23T00:07:29;18.30;66.90
47368;DHT22;34646;47.964;7.982;2022-09-23T00:13:30;18.30;67.50
47368;DHT22;34646;47.964;7.982;2022-09-23T00:19:31;18.30;66.90
47368;DHT22;34646;47.964;7.982;2022-09-23T00:25:32;18.30;66.90
47368;DHT22;34646;47.964;7.982;2022-09-23T00:31:33;18.30;66.80
47368;DHT22;34646;47.964;7.982;2022-09-23T00:37:33;18.30;66.80
47368;DHT22;34646;47.964;7.982;2022-09-23T00:43:55;18.20;66.70
47368;DHT22;34646;47.964;7.982;2022-09-23T00:56:18;18.20;66.70
47368;DHT22;34646;47.964;7.982;2022-09-23T01:02:20;18.20;66.70
47368;DHT22;34646;47.964;7.982;2022-09-23T01:08:22;18.20;66.70
47368;DHT22;34646;47.964;7.982;2022-09-23T01:21:28;18.20;66.60
47368;DHT22;34646;47.964;7.982;2022-09-23T01:27:55;18.20;66.70
47368;DHT22;34646;47.964;7.982;2022-09-23T01:34:06;18.20;66.60
47368;DHT22;34646;47.964;7.982;2022-09-23T01:40:19;18.10;66.50
47368;DHT22;34646;47.964;7.982;2022-09-23T01:46:31;18.10;66.50
47368;DHT22;34646;47.964;7.982;2022-09-23T01:52:42;18.20;66.50
47368;DHT22;34646;47.964;7.982;2022-09-23T02:05:07;18.10;66.40
47368;DHT22;34646;47.964;7.982;2022-09-23T02:11:11;18.10;66.30
47368;DHT22;34646;47.964;7.982;2022-09-23T02:17:25;18.10;66.30
47368;DHT22;34646;47.964;7.982;2022-09-23T02:23:35;18.10;66.40
47368;DHT22;34646;47.964;7.982;2022-09-23T02:36:10;18.10;66.40
47368;DHT22;34646;47.964;7.982;2022-09-23T02:42:18;18.10;66.40
47368;DHT22;34646;47.964;7.982;2022-09-23T02:48:28;18.10;66.30
47368;DHT22;34646;47.964;7.982;2022-09-23T02:54:32;18.10;66.30
47368;DHT22;34646;47.964;7.982;2022-09-23T03:01:13;18.10;66.30
47368;DHT22;34646;47.964;7.982;2022-09-23T03:07:17;18.10;66.30
47368;DHT22;34646;47.964;7.982;2022-09-23T03:13:29;18.00;66.30
47368;DHT22;34646;47.964;7.982;2022-09-23T03:26:21;18.00;66.20
47368;DHT22;34646;47.964;7.982;2022-09-23T03:32:23;18.00;66.20
47368;DHT22;34646;47.964;7.982;2022-09-23T03:38:29;18.00;66.20
47368;DHT22;34646;47.964;7.982;2022-09-23T03:44:35;18.00;66.20
47368;DHT22;34646;47.964;7.982;2022-09-23T03:50:38;18.00;66.20
47368;DHT22;34646;47.964;7.982;2022-09-23T03:56:39;18.00;66.20
47368;DHT22;34646;47.964;7.982;2022-09-23T04:02:40;18.00;66.20
47368;DHT22;34646;47.964;7.982;2022-09-23T04:08:41;18.00;66.20
47368;DHT22;34646;47.964;7.982;2022-09-23T04:14:42;18.00;66.20
47368;DHT22;34646;47.964;7.982;2022-09-23T04:20:43;17.90;66.10
47368;DHT22;34646;47.964;7.982;2022-09-23T04:26:44;17.90;66.10
47368;DHT22;34646;47.964;7.982;2022-09-23T04:32:44;17.90;66.20
47368;DHT22;34646;47.964;7.982;2022-09-23T04:38:46;17.90;66.10
47368;DHT22;34646;47.964;7.982;2022-09-23T04:44:48;17.90;66.10
47368;DHT22;34646;47.964;7.982;2022-09-23T04:50:48;17.90;66.10
47368;DHT22;34646;47.964;7.982;2022-09-23T04:56:49;17.90;66.70
47368;DHT22;34646;47.964;7.982;2022-09-23T05:02:49;17.90;66.10
47368;DHT22;34646;47.964;7.982;2022-09-23T05:08:52;17.90;66.10
47368;DHT22;34646;47.964;7.982;2022-09-23T05:14:53;17.80;66.00
47368;DHT22;34646;47.964;7.982;2022-09-23T05:20:54;17.90;66.10
47368;DHT22;34646;47.964;7.982;2022-09-23T05:26:55;17.90;66.00
47368;DHT22;34646;47.964;7.982;2022-09-23T05:32:56;17.90;66.10
47368;DHT22;34646;47.964;7.982;2022-09-23T05:38:56;17.90;66.00
47368;DHT22;34646;47.964;7.982;2022-09-23T05:44:58;17.80;66.00
47368;DHT22;34646;47.964;7.982;2022-09-23T05:50:58;17.80;66.00
47368;DHT22;34646;47.964;7.982;2022-09-23T05:56:59;17.80;66.00
47368;DHT22;34646;47.964;7.982;2022-09-23T06:03:00;17.80;65.90
47368;DHT22;34646;47.964;7.982;2022-09-23T06:09:01;17.80;66.00
47368;DHT22;34646;47.964;7.982;2022-09-23T06:15:01;17.80;66.00
47368;DHT22;34646;47.964;7.982;2022-09-23T06:21:03;17.80;66.00
47368;DHT22;34646;47.964;7.982;2022-09-23T06:27:04;17.50;60.20
47368;DHT22;34646;47.964;7.982;2022-09-23T06:33:05;17.60;65.30
47368;DHT22;34646;47.964;7.982;2022-09-23T06:39:05;17.60;66.20
47368;DHT22;34646;47.964;7.982;2022-09-23T06:45:06;17.70;66.40
47368;DHT22;34646;47.964;7.982;2022-09-23T06:51:09;17.70;66.70
47368;DHT22;34646;47.964;7.982;2022-09-23T06:57:11;17.70;66.70
47368;DHT22;34646;47.964;7.982;2022-09-23T07:03:12;17.70;66.80
47368;DHT22;34646;47.964;7.982;2022-09-23T07:09:13;17.70;66.80
47368;DHT22;34646;47.964;7.982;2022-09-23T07:15:13;17.70;66.90
47368;DHT22;34646;47.964;7.982;2022-09-23T07:21:17;17.70;67.00
47368;DHT22;34646;47.964;7.982;2022-09-23T07:27:18;17.70;67.10
47368;DHT22;34646;47.964;7.982;2022-09-23T07:33:19;17.70;67.40
47368;DHT22;34646;47.964;7.982;2022-09-23T07:39:20;17.80;67.50
47368;DHT22;34646;47.964;7.982;2022-09-23T07:45:21;17.70;67.60
47368;DHT22;34646;47.964;7.982;2022-09-23T07:51:25;17.70;67.80
47368;DHT22;34646;47.964;7.982;2022-09-23T07:57:26;17.70;68.00
47368;DHT22;34646;47.964;7.982;2022-09-23T08:03:27;17.80;68.40
47368;DHT22;34646;47.964;7.982;2022-09-23T08:09:34;17.80;69.40
47368;DHT22;34646;47.964;7.982;2022-09-23T08:15:35;17.70;69.20
47368;DHT22;34646;47.964;7.982;2022-09-23T08:21:35;17.80;69.40
47368;DHT22;34646;47.964;7.982;2022-09-23T08:27:38;17.80;69.70
47368;DHT22;34646;47.964;7.982;2022-09-23T08:33:39;17.80;70.00
47368;DHT22;34646;47.964;7.982;2022-09-23T08:39:40;17.80;70.00
47368;DHT22;34646;47.964;7.982;2022-09-23T08:45:42;17.80;69.90
47368;DHT22;34646;47.964;7.982;2022-09-23T08:51:45;17.80;69.70
47368;DHT22;34646;47.964;7.982;2022-09-23T09:04:37;17.80;69.40
47368;DHT22;34646;47.964;7.982;2022-09-23T09:10:41;17.80;69.30
47368;DHT22;34646;47.964;7.982;2022-09-23T09:23:32;17.80;69.10
47368;DHT22;34646;47.964;7.982;2022-09-23T09:29:40;17.90;69.10
47368;DHT22;34646;47.964;7.982;2022-09-23T09:41:59;17.90;69.00
47368;DHT22;34646;47.964;7.982;2022-09-23T09:48:22;17.80;68.90
47368;DHT22;34646;47.964;7.982;2022-09-23T09:54:26;17.90;68.90
47368;DHT22;34646;47.964;7.982;2022-09-23T10:06:30;17.90;68.80
47368;DHT22;34646;47.964;7.982;2022-09-23T10:12:42;17.90;68.90
47368;DHT22;34646;47.964;7.982;2022-09-23T10:18:49;17.90;68.80
47368;DHT22;34646;47.964;7.982;2022-09-23T10:24:52;17.90;68.80
47368;DHT22;34646;47.964;7.982;2022-09-23T10:31:07;17.90;68.80
47368;DHT22;34646;47.964;7.982;2022-09-23T10:37:16;17.90;68.80
47368;DHT22;34646;47.964;7.982;2022-09-23T10:50:32;17.90;68.70
47368;DHT22;34646;47.964;7.982;2022-09-23T10:56:34;17.90;68.70
47368;DHT22;34646;47.964;7.982;2022-09-23T11:08:53;17.90;68.90
47368;DHT22;34646;47.964;7.982;2022-09-23T11:21:43;17.90;69.10
47368;DHT22;34646;47.964;7.982;2022-09-23T11:34:46;17.90;68.60
47368;DHT22;34646;47.964;7.982;2022-09-23T11:40:55;18.00;68.00
47368;DHT22;34646;47.964;7.982;2022-09-23T11:47:44;18.00;68.40
47368;DHT22;34646;47.964;7.982;2022-09-23T11:53:47;18.00;68.00
47368;DHT22;34646;47.964;7.982;2022-09-23T11:59:57;18.00;68.60
47368;DHT22;34646;47.964;7.982;2022-09-23T12:06:07;18.00;68.80
47368;DHT22;34646;47.964;7.982;2022-09-23T12:12:20;18.10;68.80
47368;DHT22;34646;47.964;7.982;2022-09-23T12:25:25;18.10;68.20
47368;DHT22;34646;47.964;7.982;2022-09-23T12:31:30;18.10;67.90
47368;DHT22;34646;47.964;7.982;2022-09-23T12:37:35;18.10;67.90
47368;DHT22;34646;47.964;7.982;2022-09-23T12:43:49;18.10;68.00
47368;DHT22;34646;47.964;7.982;2022-09-23T12:49:51;18.10;68.10
47368;DHT22;34646;47.964;7.982;2022-09-23T12:55:52;18.10;68.10
47368;DHT22;34646;47.964;7.982;2022-09-23T13:01:54;18.10;68.10
47368;DHT22;34646;47.964;7.982;2022-09-23T13:08:18;18.10;68.10
47368;DHT22;34646;47.964;7.982;2022-09-23T13:14:25;18.10;68.10
47368;DHT22;34646;47.964;7.982;2022-09-23T13:20:36;18.10;68.00
47368;DHT22;34646;47.964;7.982;2022-09-23T13:26:52;18.10;68.00
47368;DHT22;34646;47.964;7.982;2022-09-23T13:33:10;18.10;68.00
47368;DHT22;34646;47.964;7.982;2022-09-23T13:39:18;18.20;68.00
47368;DHT22;34646;47.964;7.982;2022-09-23T13:45:22;18.20;68.00
47368;DHT22;34646;47.964;7.982;2022-09-23T13:51:26;18.20;68.00
47368;DHT22;34646;47.964;7.982;2022-09-23T13:57:33;18.20;68.00
47368;DHT22;34646;47.964;7.982;2022-09-23T14:03:36;18.20;67.80
47368;DHT22;34646;47.964;7.982;2022-09-23T14:09:42;18.20;67.90
47368;DHT22;34646;47.964;7.982;2022-09-23T14:15:44;18.20;67.90
47368;DHT22;34646;47.964;7.982;2022-09-23T14:21:51;18.20;67.90
47368;DHT22;34646;47.964;7.982;2022-09-23T14:27:52;18.30;68.00
47368;DHT22;34646;47.964;7.982;2022-09-23T14:33:53;18.20;68.00
47368;DHT22;34646;47.964;7.982;2022-09-23T14:39:54;18.30;68.10
47368;DHT22;34646;47.964;7.982;2022-09-23T14:45:56;18.30;68.10
47368;DHT22;34646;47.964;7.982;2022-09-23T14:51:59;18.30;68.10
47368;DHT22;34646;47.964;7.982;2022-09-23T14:58:02;18.30;68.10
47368;DHT22;34646;47.964;7.982;2022-09-23T15:04:14;18.30;68.10
47368;DHT22;34646;47.964;7.982;2022-09-23T15:10:25;18.30;68.20
47368;DHT22;34646;47.964;7.982;2022-09-23T15:16:27;18.20;68.10
47368;DHT22;34646;47.964;7.982;2022-09-23T15:22:29;18.20;68.10
47368;DHT22;34646;47.964;7.982;2022-09-23T15:28:30;18.20;68.10
47368;DHT22;34646;47.964;7.982;2022-09-23T15:34:31;18.20;68.10
47368;DHT22;34646;47.964;7.982;2022-09-23T15:40:33;18.20;68.10
47368;DHT22;34646;47.964;7.982;2022-09-23T15:46:34;18.20;68.10
47368;DHT22;34646;47.964;7.982;2022-09-23T15:52:35;18.30;68.20
47368;DHT22;34646;47.964;7.982;2022-09-23T15:58:37;18.30;68.10
47368;DHT22;34646;47.964;7.982;2022-09-23T16:04:37;18.20;68.10
47368;DHT22;34646;47.964;7.982;2022-09-23T16:10:38;18.20;68.00
47368;DHT22;34646;47.964;7.982;2022-09-23T16:16:40;18.20;68.10
47368;DHT22;34646;47.964;7.982;2022-09-23T16:23:01;18.20;68.00
47368;DHT22;34646;47.964;7.982;2022-09-23T16:29:03;18.20;68.10
47368;DHT22;34646;47.964;7.982;2022-09-23T16:35:04;18.20;68.00
47368;DHT22;34646;47.964;7.982;2022-09-23T16:41:05;18.20;68.10
47368;DHT22;34646;47.964;7.982;2022-09-23T16:47:06;18.20;68.10
47368;DHT22;34646;47.964;7.982;2022-09-23T16:53:08;18.20;68.10
47368;DHT22;34646;47.964;7.982;2022-09-23T16:59:09;18.20;68.10
47368;DHT22;34646;47.964;7.982;2022-09-23T17:05:10;18.10;68.00
47368;DHT22;34646;47.964;7.982;2022-09-23T17:11:15;18.10;68.10
47368;DHT22;34646;47.964;7.982;2022-09-23T17:17:16;18.10;68.00
47368;DHT22;34646;47.964;7.982;2022-09-23T17:23:17;18.20;68.10
47368;DHT22;34646;47.964;7.982;2022-09-23T17:29:17;18.20;68.40
47368;DHT22;34646;47.964;7.982;2022-09-23T17:35:18;18.20;68.10
47368;DHT22;34646;47.964;7.982;2022-09-23T17:41:19;18.20;68.10
47368;DHT22;34646;47.964;7.982;2022-09-23T17:47:21;18.10;68.00
47368;DHT22;34646;47.964;7.982;2022-09-23T17:53:22;18.20;68.10
47368;DHT22;34646;47.964;7.982;2022-09-23T17:59:23;18.10;68.00
47368;DHT22;34646;47.964;7.982;2022-09-23T18:05:24;18.20;68.10
47368;DHT22;34646;47.964;7.982;2022-09-23T18:11:27;18.10;68.00
47368;DHT22;34646;47.964;7.982;2022-09-23T18:17:28;18.10;68.00
47368;DHT22;34646;47.964;7.982;2022-09-23T18:23:29;18.10;68.10
47368;DHT22;34646;47.964;7.982;2022-09-23T18:29:29;18.10;68.00
47368;DHT22;34646;47.964;7.982;2022-09-23T18:35:31;18.10;68.20
47368;DHT22;34646;47.964;7.982;2022-09-23T18:41:33;18.10;68.40
47368;DHT22;34646;47.964;7.982;2022-09-23T18:47:34;18.10;68.40
47368;DHT22;34646;47.964;7.982;2022-09-23T18:53:58;18.10;68.40
47368;DHT22;34646;47.964;7.982;2022-09-23T18:59:59;18.10;68.40
47368;DHT22;34646;47.964;7.982;2022-09-23T19:06:08;18.10;68.40
47368;DHT22;34646;47.964;7.982;2022-09-23T19:12:09;18.10;68.40
47368;DHT22;34646;47.964;7.982;2022-09-23T19:18:10;18.10;68.40
47368;DHT22;34646;47.964;7.982;2022-09-23T19:24:12;18.10;68.40
47368;DHT22;34646;47.964;7.982;2022-09-23T19:30:15;18.10;68.30
47368;DHT22;34646;47.964;7.982;2022-09-23T19:36:15;18.10;68.40
47368;DHT22;34646;47.964;7.982;2022-09-23T19:42:16;18.10;68.50
47368;DHT22;34646;47.964;7.982;2022-09-23T19:48:17;18.10;68.50
47368;DHT22;34646;47.964;7.982;2022-09-23T19:54:17;18.10;68.50
47368;DHT22;34646;47.964;7.982;2022-09-23T20:00:19;18.10;68.60
47368;DHT22;34646;47.964;7.982;2022-09-23T20:06:21;18.10;68.60
47368;DHT22;34646;47.964;7.982;2022-09-23T20:12:21;18.10;68.60
47368;DHT22;34646;47.964;7.982;2022-09-23T20:18:22;18.10;68.50
47368;DHT22;34646;47.964;7.982;2022-09-23T20:24:23;18.10;68.60
47368;DHT22;34646;47.964;7.982;2022-09-23T20:30:24;18.10;68.60
47368;DHT22;34646;47.964;7.982;2022-09-23T20:36:26;18.10;68.60
47368;DHT22;34646;47.964;7.982;2022-09-23T20:42:27;18.10;68.50
47368;DHT22;34646;47.964;7.982;2022-09-23T20:48:28;18.10;68.60
47368;DHT22;34646;47.964;7.982;2022-09-23T20:54:29;18.10;68.70
47368;DHT22;34646;47.964;7.982;2022-09-23T21:00:30;18.10;68.70
47368;DHT22;34646;47.964;7.982;2022-09-23T21:06:33;18.10;68.70
47368;DHT22;34646;47.964;7.982;2022-09-23T21:12:34;18.10;68.60
47368;DHT22;34646;47.964;7.982;2022-09-23T21:18:35;18.10;68.60
47368;DHT22;34646;47.964;7.982;2022-09-23T21:24:36;18.10;68.80
47368;DHT22;34646;47.964;7.982;2022-09-23T21:30:37;18.10;68.90
47368;DHT22;34646;47.964;7.982;2022-09-23T21:36:40;18.10;68.90
47368;DHT22;34646;47.964;7.982;2022-09-23T21:42:42;18.10;68.90
47368;DHT22;34646;47.964;7.982;2022-09-23T21:48:43;18.10;68.90
47368;DHT22;34646;47.964;7.982;2022-09-23T21:54:44;18.20;68.90
47368;DHT22;34646;47.964;7.982;2022-09-23T22:00:45;18.10;68.80
47368;DHT22;34646;47.964;7.982;2022-09-23T22:06:46;18.10;68.80
47368;DHT22;34646;47.964;7.982;2022-09-23T22:12:48;18.20;68.80
47368;DHT22;34646;47.964;7.982;2022-09-23T22:18:52;18.10;68.80
47368;DHT22;34646;47.964;7.982;2022-09-23T22:24:56;18.10;68.80
47368;DHT22;34646;47.964;7.982;2022-09-23T22:30:57;18.10;68.70
47368;DHT22;34646;47.964;7.982;2022-09-23T22:37:23;18.10;68.70
47368;DHT22;34646;47.964;7.982;2022-09-23T22:43:24;18.20;68.80
47368;DHT22;34646;47.964;7.982;2022-09-23T22:49:25;18.10;68.60
47368;DHT22;34646;47.964;7.982;2022-09-23T22:55:26;18.10;68.70
47368;DHT22;34646;47.964;7.982;2022-09-23T23:01:28;18.20;68.70
47368;DHT22;34646;47.964;7.982;2022-09-23T23:07:29;18.10;68.60
47368;DHT22;34646;47.964;7.982;2022-09-23T23:13:35;18.10;68.60
47368;DHT22;34646;47.964;7.982;2022-09-23T23:19:36;18.20;68.60
47368;DHT22;34646;47.964;7.982;2022-09-23T23:25:36;18.10;68.50
47368;DHT22;34646;47.964;7.982;2022-09-23T23:31:37;18.10;68.50
47368;DHT22;34646;47.964;7.982;2022-09-23T23:37:38;18.10;68.50
47368;DHT22;34646;47.964;7.982;2022-09-23T23:43:40;18.20;68.50
47368;DHT22;34646;47.964;7.982;2022-09-23T23:49:41;18.10;68.50
47368;DHT22;34646;47.964;7.982;2022-09-23T23:55:41;18.20;68.50
